createdAt,value
2023-03-17T00:00:46.501Z,8.90
2023-03-17T00:03:25.802Z,9.20
2023-03-17T00:05:54.801Z,8.80
2023-03-17T00:08:26.582Z,9.27
2023-03-17T00:10:55.057Z,8.60
2023-03-17T00:13:23.966Z,8.40
2023-03-17T00:15:58.987Z,7.57
2023-03-17T00:18:26.373Z,7.82
2023-03-17T00:20:53.663Z,7.60
2023-03-17T00:23:24.438Z,8.07
2023-03-17T00:25:54.213Z,8.03
2023-03-17T00:28:24.092Z,7.53
2023-03-17T00:31:01.244Z,7.13
2023-03-17T00:33:33.170Z,6.70
2023-03-17T00:36:01.374Z,7.43
2023-03-17T00:38:28.581Z,6.20
2023-03-17T00:40:55.787Z,5.80
2023-03-17T00:43:23.065Z,5.87
2023-03-17T00:45:51.208Z,5.60
2023-03-17T00:48:22.255Z,5.80
2023-03-17T00:50:51.179Z,6.07
2023-03-17T00:53:21.682Z,5.47
2023-03-17T00:55:50.009Z,5.50
2023-03-17T00:58:34.446Z,5.37
2023-03-17T01:01:02.351Z,5.10
2023-03-17T01:03:29.629Z,5.73
2023-03-17T01:05:59.949Z,5.67
2023-03-17T01:08:28.721Z,6.00
2023-03-17T01:10:56.778Z,5.60
2023-03-17T01:13:24.394Z,5.73
2023-03-17T01:15:53.069Z,5.77
2023-03-17T01:18:22.997Z,6.03
2023-03-17T01:20:50.983Z,5.67
2023-03-17T01:23:18.389Z,5.07
2023-03-17T01:25:45.739Z,5.53
2023-03-17T01:28:19.181Z,5.83
2023-03-17T01:30:47.479Z,5.53
2023-03-17T01:33:15.670Z,6.10
2023-03-17T01:35:45.739Z,5.53
2023-03-17T01:38:14.962Z,5.60
2023-03-17T01:40:51.937Z,5.57
2023-03-17T01:43:29.553Z,6.67
2023-03-17T01:46:17.278Z,5.83
2023-03-17T01:49:05.740Z,5.57
2023-03-17T01:52:11.151Z,5.33
2023-03-17T01:54:53.158Z,5.40
2023-03-17T01:57:37.122Z,5.07
2023-03-17T02:00:16.376Z,5.00
2023-03-17T02:02:47.916Z,5.03
2023-03-17T02:05:21.287Z,5.67
2023-03-17T02:07:49.315Z,5.43
2023-03-17T02:10:20.626Z,5.37
2023-03-17T02:12:55.458Z,6.20
2023-03-17T02:15:23.894Z,5.93
2023-03-17T02:17:50.984Z,5.77
2023-03-17T02:20:18.482Z,5.50
2023-03-17T02:22:52.563Z,6.00
2023-03-17T02:25:23.580Z,5.17
2023-03-17T02:27:55.618Z,5.67
2023-03-17T02:30:25.449Z,5.20
2023-03-17T02:32:52.747Z,5.10
2023-03-17T02:35:20.603Z,5.33
2023-03-17T02:37:47.842Z,5.13
2023-03-17T02:40:15.568Z,5.70
2023-03-17T02:42:42.683Z,5.90
2023-03-17T02:45:12.704Z,5.97
2023-03-17T02:47:41.477Z,6.17
2023-03-17T02:50:18.151Z,6.57
2023-03-17T02:52:45.308Z,6.30
2023-03-17T02:55:12.440Z,6.97
2023-03-17T02:57:39.615Z,5.80
2023-03-17T03:00:10.517Z,5.63
2023-03-17T03:02:39.096Z,5.83
2023-03-17T03:05:08.853Z,5.70
2023-03-17T03:07:36.672Z,5.80
2023-03-17T03:10:05.530Z,5.73
2023-03-17T03:12:32.674Z,5.80
2023-03-17T03:15:00.759Z,6.13
2023-03-17T03:17:27.908Z,5.57
2023-03-17T03:19:55.416Z,6.23
2023-03-17T03:22:22.492Z,6.30
2023-03-17T03:24:49.720Z,7.00
2023-03-17T03:27:16.999Z,6.20
2023-03-17T03:29:44.308Z,7.07
2023-03-17T03:32:11.492Z,7.30
2023-03-17T03:34:38.663Z,7.30
2023-03-17T03:37:06.056Z,7.47
2023-03-17T03:39:33.136Z,7.83
2023-03-17T03:42:00.730Z,8.60
2023-03-17T03:44:27.848Z,8.23
2023-03-17T03:46:54.945Z,8.57
2023-03-17T03:49:22.683Z,7.90
2023-03-17T03:51:50.370Z,8.57
2023-03-17T03:54:17.450Z,9.10
2023-03-17T03:56:44.647Z,8.07
2023-03-17T03:59:11.814Z,8.50
2023-03-17T04:01:40.081Z,8.30
2023-03-17T04:04:07.525Z,8.90
2023-03-17T04:06:34.693Z,8.97
2023-03-17T04:09:02.434Z,8.50
2023-03-17T04:11:29.523Z,8.87
2023-03-17T04:13:56.906Z,9.53
2023-03-17T04:16:24.477Z,9.27
2023-03-17T04:18:51.892Z,8.53
2023-03-17T04:21:20.575Z,9.17
2023-03-17T04:23:47.948Z,8.23
2023-03-17T04:26:15.062Z,8.50
2023-03-17T04:28:42.119Z,7.87
2023-03-17T04:31:12.502Z,7.93
2023-03-17T04:33:40.577Z,8.00
2023-03-17T04:36:13.712Z,7.97
2023-03-17T04:38:40.872Z,8.33
2023-03-17T04:41:08.006Z,8.00
2023-03-17T04:43:35.425Z,8.73
2023-03-17T04:46:02.717Z,8.53
2023-03-17T04:48:29.877Z,8.53
2023-03-17T04:50:57.236Z,8.13
2023-03-17T04:53:24.720Z,7.80
2023-03-17T04:55:51.990Z,7.43
2023-03-17T04:58:30.542Z,8.10
2023-03-17T05:00:59.138Z,7.70
2023-03-17T05:03:28.562Z,7.93
2023-03-17T05:06:00.152Z,7.73
2023-03-17T05:08:28.507Z,7.23
2023-03-17T05:10:57.441Z,7.70
2023-03-17T05:13:26.587Z,7.33
2023-03-17T05:15:55.651Z,7.47
2023-03-17T05:18:25.722Z,7.40
2023-03-17T05:20:52.959Z,8.13
2023-03-17T05:23:20.608Z,7.57
2023-03-17T05:25:48.347Z,6.90
2023-03-17T05:28:16.004Z,6.33
2023-03-17T05:30:43.600Z,7.00
2023-03-17T05:33:10.818Z,7.30
2023-03-17T05:35:38.361Z,6.43
2023-03-17T05:38:05.627Z,7.03
2023-03-17T05:40:33.260Z,7.37
2023-03-17T05:43:00.853Z,7.13
2023-03-17T05:45:29.373Z,9.77
2023-03-17T05:47:57.107Z,8.40
2023-03-17T05:50:25.077Z,6.53
2023-03-17T05:52:52.359Z,7.83
2023-03-17T05:55:20.602Z,6.33
2023-03-17T05:57:47.912Z,7.17
2023-03-17T06:00:16.281Z,6.57
2023-03-17T06:02:43.518Z,6.70
2023-03-17T06:05:11.577Z,7.00
2023-03-17T06:07:51.721Z,6.93
2023-03-17T06:10:22.013Z,6.77
2023-03-17T06:12:49.188Z,6.67
2023-03-17T06:15:17.323Z,6.77
2023-03-17T06:17:44.707Z,6.03
2023-03-17T06:20:13.275Z,6.03
2023-03-17T06:22:55.194Z,6.77
2023-03-17T06:25:28.461Z,6.43
2023-03-17T06:27:56.277Z,6.70
2023-03-17T06:30:23.417Z,6.07
2023-03-17T06:32:50.600Z,6.17
2023-03-17T06:35:18.182Z,6.57
2023-03-17T06:37:45.375Z,6.70
2023-03-17T06:40:13.427Z,6.60
2023-03-17T06:42:40.590Z,6.73
2023-03-17T06:45:09.436Z,6.20
2023-03-17T06:47:37.429Z,6.37
2023-03-17T06:50:06.074Z,6.13
2023-03-17T06:52:33.244Z,5.73
2023-03-17T06:55:00.435Z,5.30
2023-03-17T06:57:27.589Z,6.60
2023-03-17T06:59:54.834Z,5.47
2023-03-17T07:02:21.942Z,5.30
2023-03-17T07:04:49.149Z,5.50
2023-03-17T07:07:16.687Z,5.77
2023-03-17T07:09:43.817Z,5.73
2023-03-17T07:12:11.333Z,6.00
2023-03-17T07:14:38.607Z,6.07
2023-03-17T07:17:06.816Z,5.97
2023-03-17T07:19:35.122Z,5.53
2023-03-17T07:22:02.298Z,5.47
2023-03-17T07:24:29.700Z,5.72
2023-03-17T07:26:56.994Z,5.43
2023-03-17T07:29:24.157Z,4.82
2023-03-17T07:31:51.411Z,6.00
2023-03-17T07:34:18.589Z,5.40
2023-03-17T07:36:46.064Z,5.00
2023-03-17T07:39:13.148Z,4.97
2023-03-17T07:41:40.367Z,5.03
2023-03-17T07:44:08.322Z,4.97
2023-03-17T07:46:35.720Z,5.05
2023-03-17T07:49:02.902Z,4.63
2023-03-17T07:51:30.204Z,4.90
2023-03-17T07:54:03.542Z,4.57
2023-03-17T07:56:32.836Z,4.55
2023-03-17T07:59:00.272Z,3.92
2023-03-17T08:01:28.716Z,4.30
2023-03-17T08:03:56.687Z,4.28
2023-03-17T08:06:27.709Z,4.95
2023-03-17T08:08:55.387Z,3.95
2023-03-17T08:11:23.529Z,4.38
2023-03-17T08:13:51.096Z,4.63
2023-03-17T08:16:18.412Z,5.05
2023-03-17T08:18:45.626Z,4.10
2023-03-17T08:21:14.796Z,4.75
2023-03-17T08:23:43.298Z,4.28
2023-03-17T08:26:10.724Z,4.60
2023-03-17T08:28:38.402Z,4.50
2023-03-17T08:31:17.124Z,4.07
2023-03-17T08:33:49.287Z,5.07
2023-03-17T08:36:19.265Z,4.10
2023-03-17T08:38:48.106Z,4.30
2023-03-17T08:41:19.205Z,4.55
2023-03-17T08:43:47.156Z,4.13
2023-03-17T08:46:29.973Z,4.35
2023-03-17T08:48:59.132Z,4.15
2023-03-17T08:51:31.241Z,4.90
2023-03-17T08:53:58.809Z,4.30
2023-03-17T08:56:26.142Z,4.32
2023-03-17T08:58:53.521Z,4.50
2023-03-17T09:01:22.742Z,4.10
2023-03-17T09:03:51.294Z,4.00
2023-03-17T09:06:18.594Z,4.40
2023-03-17T09:08:47.528Z,4.88
2023-03-17T09:11:20.421Z,4.72
2023-03-17T09:13:48.026Z,4.82
2023-03-17T09:16:16.459Z,5.45
2023-03-17T09:18:45.179Z,4.32
2023-03-17T09:21:14.173Z,4.57
2023-03-17T09:23:42.240Z,4.70
2023-03-17T09:26:10.334Z,4.90
2023-03-17T09:28:37.492Z,4.63
2023-03-17T09:31:11.344Z,4.60
2023-03-17T09:33:42.222Z,4.07
2023-03-17T09:36:10.909Z,4.57
2023-03-17T09:38:38.718Z,4.57
2023-03-17T09:41:58.932Z,4.82
2023-03-17T09:44:43.793Z,4.43
2023-03-17T09:47:21.148Z,4.30
2023-03-17T09:49:58.512Z,4.43
2023-03-17T09:52:30.411Z,4.35
2023-03-17T09:54:59.038Z,4.18
2023-03-17T09:57:40.116Z,4.28
2023-03-17T10:00:20.766Z,4.47
2023-03-17T10:02:47.926Z,4.10
2023-03-17T10:05:32.014Z,4.45
2023-03-17T10:08:32.071Z,4.65
2023-03-17T10:11:10.982Z,4.72
2023-03-17T10:14:03.937Z,4.93
2023-03-17T10:16:51.892Z,4.63
2023-03-17T10:19:36.166Z,3.90
2023-03-17T10:22:16.002Z,3.95
2023-03-17T10:24:57.506Z,4.30
2023-03-17T10:27:24.967Z,3.78
2023-03-17T10:29:52.720Z,4.07
2023-03-17T10:32:19.872Z,4.75
2023-03-17T10:34:48.685Z,4.07
2023-03-17T10:37:23.976Z,4.50
2023-03-17T10:39:54.640Z,4.57
2023-03-17T10:42:33.178Z,4.20
2023-03-17T10:45:29.877Z,3.95
2023-03-17T10:48:00.129Z,4.25
2023-03-17T10:50:34.550Z,3.85
2023-03-17T10:53:10.930Z,4.13
2023-03-17T10:55:37.951Z,4.10
2023-03-17T10:58:15.696Z,4.70
2023-03-17T11:01:00.412Z,4.18
2023-03-17T11:03:36.036Z,4.43
2023-03-17T11:06:11.623Z,4.40
2023-03-17T11:08:55.942Z,4.85
2023-03-17T11:11:36.224Z,4.78
2023-03-17T11:14:11.708Z,4.72
2023-03-17T11:17:01.199Z,4.55
2023-03-17T11:19:47.651Z,4.45
2023-03-17T11:22:24.877Z,4.63
2023-03-17T11:25:10.274Z,4.88
2023-03-17T11:27:52.182Z,4.53
2023-03-17T11:30:36.943Z,4.47
2023-03-17T11:33:28.092Z,4.30
2023-03-17T11:36:30.097Z,5.65
2023-03-17T11:39:20.095Z,4.78
2023-03-17T11:42:11.570Z,4.28
2023-03-17T11:45:05.250Z,4.75
2023-03-17T11:48:17.350Z,5.70
2023-03-17T11:51:30.381Z,4.22
2023-03-17T11:54:12.592Z,4.13
2023-03-17T11:56:51.868Z,4.13
2023-03-17T11:59:39.420Z,4.40
2023-03-17T12:02:15.309Z,4.80
2023-03-17T12:04:58.587Z,4.20
2023-03-17T12:07:53.279Z,4.90
2023-03-17T12:11:01.072Z,4.07
2023-03-17T12:13:39.874Z,4.10
2023-03-17T12:16:29.497Z,4.28
2023-03-17T12:19:26.223Z,4.65
2023-03-17T12:24:45.700Z,3.50
2023-03-17T12:27:23.357Z,4.30
2023-03-17T12:30:02.968Z,4.22
2023-03-17T12:33:06.096Z,3.90
2023-03-17T12:35:38.679Z,3.17
2023-03-17T12:38:38.146Z,3.83
2023-03-17T12:41:37.029Z,4.35
2023-03-17T12:44:33.192Z,3.83
2023-03-17T12:47:28.677Z,3.42
2023-03-17T12:50:10.799Z,3.65
2023-03-17T12:53:11.490Z,3.28
2023-03-17T12:55:39.288Z,3.35
2023-03-17T12:58:39.108Z,3.63
2023-03-17T13:01:37.343Z,3.72
2023-03-17T13:04:37.156Z,3.75
2023-03-17T13:07:23.721Z,3.58
2023-03-17T13:10:29.298Z,3.70
2023-03-17T13:13:07.221Z,3.53
2023-03-17T13:15:38.646Z,3.45
2023-03-17T13:18:17.704Z,3.28
2023-03-17T13:20:56.865Z,3.53
2023-03-17T13:23:59.590Z,3.45
2023-03-17T13:26:58.197Z,3.50
2023-03-17T13:29:34.810Z,3.65
2023-03-17T13:32:33.837Z,3.80
2023-03-17T13:35:01.224Z,3.47
2023-03-17T13:37:33.626Z,3.70
2023-03-17T13:40:30.554Z,4.13
2023-03-17T13:43:32.655Z,3.22
2023-03-17T13:46:18.637Z,3.63
2023-03-17T13:51:19.396Z,4.07
2023-03-17T13:53:57.646Z,4.05
2023-03-17T13:56:37.766Z,3.97
2023-03-17T13:59:18.550Z,3.80
2023-03-17T14:02:02.860Z,4.15
2023-03-17T14:04:54.830Z,4.13
2023-03-17T14:07:31.719Z,3.83
2023-03-17T14:10:03.050Z,5.05
2023-03-17T14:12:39.070Z,3.72
2023-03-17T14:15:33.168Z,3.63
2023-03-17T14:18:42.261Z,3.47
2023-03-17T14:21:24.297Z,4.22
2023-03-17T14:24:00.886Z,4.50
2023-03-17T14:26:31.596Z,4.10
2023-03-17T14:29:04.901Z,3.65
2023-03-17T14:31:32.261Z,3.88
2023-03-17T14:34:01.316Z,3.67
2023-03-17T14:36:33.860Z,3.53
2023-03-17T14:39:00.986Z,3.85
2023-03-17T14:41:29.369Z,3.95
2023-03-17T14:44:01.521Z,4.28
2023-03-17T14:46:37.213Z,3.67
2023-03-17T14:49:20.954Z,3.38
2023-03-17T14:51:58.289Z,3.80
2023-03-17T14:54:33.545Z,3.78
2023-03-17T14:57:15.823Z,4.93
2023-03-17T14:59:55.328Z,3.90
2023-03-17T15:02:35.730Z,4.38
2023-03-17T15:05:40.411Z,3.92
2023-03-17T15:08:36.467Z,4.00
2023-03-17T15:11:06.591Z,3.92
2023-03-17T15:13:38.178Z,3.67
2023-03-17T15:16:29.996Z,4.45
2023-03-17T15:19:21.348Z,4.07
2023-03-17T15:21:49.052Z,4.22
2023-03-17T15:24:40.555Z,4.20
2023-03-17T15:27:17.355Z,4.75
2023-03-17T15:29:48.297Z,4.65
2023-03-17T15:32:27.446Z,4.72
2023-03-17T15:34:59.173Z,4.60
2023-03-17T15:37:31.889Z,4.55
2023-03-17T15:40:00.810Z,4.05
2023-03-17T15:42:32.646Z,4.03
2023-03-17T15:45:03.850Z,4.40
2023-03-17T15:47:37.751Z,4.05
2023-03-17T15:50:31.098Z,4.43
2023-03-17T15:52:58.728Z,4.50
2023-03-17T15:55:31.988Z,3.97
2023-03-17T15:57:59.421Z,3.92
2023-03-17T16:00:30.097Z,4.28
2023-03-17T16:03:04.071Z,4.28
2023-03-17T16:05:33.941Z,3.10
2023-03-17T16:08:01.517Z,3.42
2023-03-17T16:10:32.014Z,3.67
2023-03-17T16:12:59.406Z,3.30
2023-03-17T16:15:31.509Z,4.00
2023-03-17T16:18:05.283Z,3.90
2023-03-17T16:20:42.795Z,3.83
2023-03-17T16:23:27.663Z,3.80
2023-03-17T16:25:59.297Z,3.72
2023-03-17T16:28:32.910Z,3.83
2023-03-17T16:31:02.014Z,3.53
2023-03-17T16:33:39.874Z,3.80
2023-03-17T16:36:07.808Z,3.30
2023-03-17T16:38:35.048Z,3.60
2023-03-17T16:41:09.504Z,3.72
2023-03-17T16:43:38.280Z,3.67
2023-03-17T16:46:07.766Z,3.35
2023-03-17T16:48:35.448Z,4.07
2023-03-17T16:51:05.455Z,3.58
2023-03-17T16:53:32.781Z,3.80
2023-03-17T16:56:00.321Z,4.07
2023-03-17T16:58:34.644Z,3.75
2023-03-17T17:01:07.092Z,3.70
2023-03-17T17:03:37.863Z,3.50
2023-03-17T17:06:07.255Z,3.78
2023-03-17T17:08:34.725Z,3.67
2023-03-17T17:11:02.885Z,4.70
2023-03-17T17:13:32.609Z,3.95
2023-03-17T17:16:01.301Z,3.50
2023-03-17T17:18:29.147Z,4.07
2023-03-17T17:20:57.313Z,4.32
2023-03-17T17:23:27.806Z,3.92
2023-03-17T17:25:55.841Z,3.90
2023-03-17T17:28:26.247Z,3.60
2023-03-17T17:30:53.856Z,4.18
2023-03-17T17:33:22.184Z,3.45
2023-03-17T17:35:51.198Z,3.75
2023-03-17T17:38:27.892Z,3.72
2023-03-17T17:40:59.342Z,3.70
2023-03-17T17:43:29.405Z,4.05
2023-03-17T17:45:57.761Z,3.88
2023-03-17T17:48:28.618Z,3.67
2023-03-17T17:50:59.134Z,3.72
2023-03-17T17:53:27.766Z,3.80
2023-03-17T17:55:55.775Z,3.33
2023-03-17T17:58:26.152Z,3.55
2023-03-17T18:00:57.639Z,3.85
2023-03-17T18:03:27.717Z,3.60
2023-03-17T18:05:57.943Z,3.67
2023-03-17T18:08:27.984Z,3.35
2023-03-17T18:10:58.267Z,3.53
2023-03-17T18:13:26.278Z,3.13
2023-03-17T18:15:55.399Z,3.42
2023-03-17T18:18:26.487Z,3.30
2023-03-17T18:20:54.358Z,3.72
2023-03-17T18:23:22.054Z,3.05
2023-03-17T18:25:50.215Z,3.80
2023-03-17T18:28:19.791Z,3.05
2023-03-17T18:30:48.256Z,3.47
2023-03-17T18:33:20.503Z,3.85
2023-03-17T18:35:55.960Z,3.38
2023-03-17T18:38:24.330Z,3.25
2023-03-17T18:40:53.240Z,3.58
2023-03-17T18:43:21.977Z,3.00
2023-03-17T18:45:50.386Z,3.42
2023-03-17T18:48:19.792Z,2.67
2023-03-17T18:50:50.099Z,3.60
2023-03-17T18:53:19.488Z,3.60
2023-03-17T18:55:47.247Z,3.85
2023-03-17T18:58:16.172Z,3.15
2023-03-17T19:00:49.579Z,3.50
2023-03-17T19:03:19.418Z,3.13
2023-03-17T19:05:47.526Z,3.90
2023-03-17T19:08:17.271Z,3.75
2023-03-17T19:10:46.270Z,3.42
2023-03-17T19:13:15.638Z,3.40
2023-03-17T19:15:44.143Z,3.58
2023-03-17T19:18:14.400Z,3.70
2023-03-17T19:20:43.796Z,3.72
2023-03-17T19:23:15.990Z,3.50
2023-03-17T19:25:44.453Z,2.90
2023-03-17T19:28:13.207Z,3.10
2023-03-17T19:30:42.604Z,2.90
2023-03-17T19:33:16.415Z,3.65
2023-03-17T19:35:45.217Z,4.13
2023-03-17T19:38:13.385Z,3.13
2023-03-17T19:40:41.898Z,3.65
2023-03-17T19:43:09.711Z,2.80
2023-03-17T19:45:38.861Z,3.42
2023-03-17T19:48:09.416Z,2.80
2023-03-17T19:50:38.028Z,2.90
2023-03-17T19:53:07.066Z,3.42
2023-03-17T19:55:35.673Z,3.38
2023-03-17T19:58:05.877Z,3.10
2023-03-17T20:00:37.522Z,2.95
2023-03-17T20:03:06.614Z,3.15
2023-03-17T20:05:36.431Z,3.25
2023-03-17T20:08:07.340Z,3.35
2023-03-17T20:10:35.977Z,3.50
2023-03-17T20:13:04.410Z,3.30
2023-03-17T20:15:32.995Z,3.10
2023-03-17T20:18:00.888Z,3.05
2023-03-17T20:20:30.609Z,3.00
2023-03-17T20:22:59.222Z,2.42
2023-03-17T20:25:27.198Z,3.90
2023-03-17T20:27:55.635Z,3.28
2023-03-17T20:30:24.255Z,3.40
2023-03-17T20:32:52.091Z,2.95
2023-03-17T20:35:22.608Z,3.10
2023-03-17T20:37:53.205Z,2.90
2023-03-17T20:40:21.572Z,2.85
2023-03-17T20:42:49.624Z,2.80
2023-03-17T20:45:17.458Z,2.75
2023-03-17T20:47:48.526Z,3.20
2023-03-17T20:50:16.886Z,3.47
2023-03-17T20:52:48.064Z,2.97
2023-03-17T20:55:17.404Z,2.70
2023-03-17T20:57:50.353Z,2.78
2023-03-17T21:00:22.381Z,2.72
2023-03-17T21:02:51.212Z,4.90
2023-03-17T21:05:25.389Z,2.80
2023-03-17T21:07:53.789Z,3.20
2023-03-17T21:10:21.760Z,2.90
2023-03-17T21:12:50.941Z,3.13
2023-03-17T21:15:19.372Z,3.03
2023-03-17T21:17:47.299Z,2.83
2023-03-17T21:20:15.581Z,3.00
2023-03-17T21:22:43.340Z,2.78
2023-03-17T21:25:14.051Z,3.40
2023-03-17T21:27:42.759Z,2.33
2023-03-17T21:30:14.999Z,2.53
2023-03-17T21:32:43.915Z,3.05
2023-03-17T21:35:11.564Z,2.95
2023-03-17T21:37:39.180Z,3.38
2023-03-17T21:40:08.036Z,3.60
2023-03-17T21:42:35.408Z,3.05
2023-03-17T21:45:03.375Z,2.70
2023-03-17T21:47:31.090Z,3.00
2023-03-17T21:49:58.487Z,2.92
2023-03-17T21:52:26.156Z,3.05
2023-03-17T21:54:53.633Z,2.80
2023-03-17T21:57:20.905Z,2.97
2023-03-17T21:59:48.206Z,2.92
2023-03-17T22:02:18.859Z,3.20
2023-03-17T22:04:47.020Z,3.13
2023-03-17T22:07:14.699Z,3.38
2023-03-17T22:09:41.962Z,3.40
2023-03-17T22:12:10.169Z,3.22
2023-03-17T22:14:38.000Z,3.45
2023-03-17T22:17:05.578Z,3.30
2023-03-17T22:19:32.981Z,3.10
2023-03-17T22:22:00.313Z,3.08
2023-03-17T22:24:27.771Z,3.20
2023-03-17T22:26:55.824Z,2.97
2023-03-17T22:29:23.082Z,3.58
2023-03-17T22:31:50.330Z,3.60
2023-03-17T22:34:18.225Z,3.88
2023-03-17T22:36:45.380Z,3.47
2023-03-17T22:39:12.717Z,3.30
2023-03-17T22:41:40.084Z,3.22
2023-03-17T22:44:09.725Z,4.03
2023-03-17T22:46:43.359Z,3.20
2023-03-17T22:49:11.396Z,3.28
2023-03-17T22:51:41.264Z,3.42
2023-03-17T22:54:11.347Z,4.13
2023-03-17T22:56:38.646Z,3.30
2023-03-17T22:59:05.955Z,3.83
2023-03-17T23:01:33.430Z,3.88
2023-03-17T23:04:01.037Z,3.65
2023-03-17T23:06:28.387Z,3.55
2023-03-17T23:08:56.085Z,4.10
2023-03-17T23:11:26.214Z,4.00
2023-03-17T23:13:54.216Z,4.22
2023-03-17T23:16:22.223Z,3.95
2023-03-17T23:18:49.621Z,4.07
2023-03-17T23:21:29.293Z,4.10
2023-03-17T23:23:56.827Z,3.72
2023-03-17T23:26:24.165Z,3.97
2023-03-17T23:28:51.899Z,4.13
2023-03-17T23:31:22.328Z,4.05
2023-03-17T23:33:50.500Z,4.13
2023-03-17T23:36:18.421Z,4.05
2023-03-17T23:38:46.452Z,4.00
2023-03-17T23:41:14.539Z,4.13
2023-03-17T23:43:42.521Z,4.68
2023-03-17T23:46:10.077Z,4.75
2023-03-17T23:48:37.814Z,4.32
2023-03-17T23:51:05.765Z,4.38
2023-03-17T23:53:33.040Z,4.97
2023-03-17T23:56:00.173Z,4.40
2023-03-17T23:58:27.627Z,4.25
